• Join FlightAware (Why Join?)
  • Login
  • US Flag 
01:23PM EDT


 

Airport Tracker/Info


-or-


 

Live Flight TrackerFlight Track Log ✈ GJS3710 ✈ 19-Jun-2013 ✈ KORD - KALB

Flight Track Log - Related Links

Times and Time Zones

All times are in EDT time to prevent confusion due to time zone crossing. See the GJS3710 flight status page for this flight to view local times or setup timezone preferences in your user account.

Time Position Orientation Groundspeed Altitude Reporting Facility
EDT Latitude Longitude Course Direction KTS MPH feet Rate Location/Type
08:02PM 42.0167 -87.8500 86° East 180 207 3,200  Level Chicago TRACON
08:03PM 42.0500 -87.7667 62° Northeast 276 318 5,200 2,160 Climbing Chicago TRACON
08:03PM 42.0581 -87.7258 75° East 262 302 6,500 3,120 Climbing Chicago Center
08:04PM 42.0969 -87.6097 66° East 283 326 10,100 3,000 Climbing Chicago Center
08:05PM 42.2607 -87.0679 66° East  Level FlightAware Approximate
08:05PM 42.1333 -87.5022 65° Northeast 305 351 12,700  Level Chicago Center
08:06PM 42.2709 -86.9137 86° East  Level FlightAware Approximate
08:06PM 42.1575 -87.3856 74° East 325 374 14,600  Level Chicago Center
08:07PM 42.2781 -86.7615 86° East  Level FlightAware Approximate
08:07PM 42.1653 -87.2494 86° East 362 417 16,100  Level Chicago Center
08:08PM 42.1728 -87.1039 86° East 382 440 17,600 1,680 Climbing Chicago Center
08:09PM 42.1825 -86.9186 86° East 408 470 19,600 1,860 Climbing Chicago Center
08:10PM 42.1914 -86.7639 86° East 415 478 21,500 1,800 Climbing Chicago Center
08:12PM 42.2003 -86.5994 86° East 419 482 23,400 1,560 Climbing Chicago Center
08:13PM 42.2078 -86.4403 86° East 424 488 24,800 1,200 Climbing Chicago Center
08:14PM 42.2150 -86.2786 86° East 432 497 25,900 960 Climbing Chicago Center
08:15PM 42.2222 -86.1094 87° East 448 516 26,900 960 Climbing Chicago Center
08:16PM 42.2311 -85.9153 86° East 459 528 27,900 900 Climbing Chicago Center
08:17PM 42.2386 -85.7378 87° East 471 542 28,800 1,080 Climbing Chicago Center
08:18PM 42.2472 -85.5594 86° East 478 550 30,200 1,200 Climbing Chicago Center
08:19PM 42.2539 -85.3833 87° East 476 548 31,400 1,200 Climbing Chicago Center
08:20PM 42.2481 -85.2128 93° East 463 533 32,800 1,260 Climbing Chicago Center
08:21PM 42.2067 -85.0119 105° East 466 536 34,100 1,260 Climbing Chicago Center
08:22PM 42.1719 -84.8464 106° East 461 531 35,500 900 Climbing Chicago Center
08:23PM 42.1664 -84.6842 93° East 439 505 36,000 240 Climbing Chicago Center
08:24PM 42.1844 -84.5158 82° East 453 521 36,000  Level Chicago Center
08:25PM 42.2014 -84.3436 82° East 462 532 36,000  Level Chicago Center
08:25PM 42.2106 -84.2306 84° East 449 517 36,000  Level Cleveland Center
08:26PM 42.2261 -84.0603 83° East 459 528 36,000  Level Cleveland Center
08:27PM 42.2439 -83.8903 82° East 459 528 36,000  Level Cleveland Center
08:28PM 42.2589 -83.7256 83° East 459 528 36,000  Level Cleveland Center
08:29PM 42.2739 -83.5522 83° East 454 522 36,000  Level Cleveland Center
08:30PM 42.2886 -83.3817 83° East 455 524 36,000  Level Cleveland Center
08:31PM 42.3025 -83.2278 83° East 462 532 36,000  Level Cleveland Center
08:32PM 42.3192 -83.0517 83° East 467 537 36,000  Level Cleveland Center
08:33PM 42.3353 -82.8753 83° East 462 532 36,000  Level Cleveland Center
08:34PM 42.3492 -82.6958 84° East 462 532 36,000  Level Cleveland Center
08:35PM 42.3647 -82.5167 83° East 474 545 36,000  Level Cleveland Center
08:36PM 42.3803 -82.3314 83° East 484 557 36,000 60 Level Cleveland Center
08:37PM 42.3933 -82.1464 84° East 489 563 36,200 480 Climbing Cleveland Center
08:38PM 42.4103 -81.9639 83° East 489 563 37,000 780 Climbing Cleveland Center
08:39PM 42.4250 -81.7617 84° East 489 563 37,800 780 Climbing Cleveland Center
08:40PM 42.4411 -81.5847 83° East 484 557 38,600 600 Climbing Cleveland Center
08:41PM 42.4531 -81.4050 85° East 477 549 39,000 180 Climbing Cleveland Center
08:42PM 42.4647 -81.2278 85° East 477 549 39,000  Level Cleveland Center
08:43PM 42.4781 -81.0506 84° East 472 543 39,000  Level Cleveland Center
08:44PM 42.4889 -80.8789 85° East 472 543 39,000  Level Cleveland Center
08:45PM 42.5019 -80.7014 84° East 467 537 39,000  Level Cleveland Center
08:46PM 42.5122 -80.5183 86° East 472 543 39,000  Level Cleveland Center
08:47PM 42.5225 -80.3633 85° East 467 537 39,000  Level Cleveland Center
08:48PM 42.5325 -80.1831 86° East 477 549 39,000  Level Cleveland Center
08:49PM 42.5464 -79.9997 84° East 482 555 39,000  Level Cleveland Center
08:50PM 42.5597 -79.7994 85° East 482 555 39,000  Level Cleveland Center
08:51PM 42.5686 -79.6161 86° East 482 555 39,000  Level Cleveland Center
08:52PM 42.5794 -79.4300 85° East 482 555 39,000  Level Cleveland Center
08:53PM 42.5900 -79.2436 86° East 487 560 39,000  Level Cleveland Center
08:54PM 42.6003 -79.0600 86° East 487 560 39,000  Level Cleveland Center
08:55PM 42.6100 -78.8708 86° East 493 567 39,000  Level Cleveland Center
08:56PM 42.6175 -78.6817 87° East 498 573 39,000 -780 Level Cleveland Center
08:58PM 42.6219 -78.5187 88° East  Level FlightAware Approximate
08:58PM 42.6358 -78.3028 88° East 498 573 36,800  Level Cleveland Center
08:59PM 42.6444 -78.1217 86° East 498 573 35,300 -1,500 Descending Cleveland Center
09:00PM 42.6508 -77.9353 87° East 491 565 33,800 -1,440 Descending Cleveland Center
09:01PM 42.6594 -77.7711 86° East 486 559 32,500 -1,440 Descending Cleveland Center
09:02PM 42.6675 -77.5956 86° East 474 545 31,000 -780 Descending Cleveland Center
09:03PM 42.6731 -77.4117 88° East 469 540 31,000 -660 Level Cleveland Center
09:06PM 42.6856 -77.0139 87° East 463 533 29,000 -660 Descending Boston Center
09:07PM 42.6928 -76.8361 87° East 469 540 29,000  Level Boston Center
09:08PM 42.6972 -76.6586 88° East 469 540 29,000  Level Boston Center
09:09PM 42.7017 -76.4778 88° East 475 547 29,000  Level Boston Center
09:10PM 42.7081 -76.2975 87° East 475 547 29,000  Level Boston Center
09:11PM 42.7156 -76.1339 86° East 475 547 29,000 -1,020 Level Boston Center
09:12PM 42.7169 -75.9558 89° East 475 547 27,000 -2,040 Descending Boston Center
09:13PM 42.7222 -75.7808 88° East 475 547 25,000 -1,980 Descending Boston Center
09:14PM 42.7253 -75.6086 89° East 463 533 23,100 -2,040 Descending Boston Center
09:15PM 42.7275 -75.4447 89° East 449 517 21,000 -2,040 Descending Boston Center
09:16PM 42.7317 -75.2811 88° East 429 494 19,100 -1,860 Descending Boston Center
09:17PM 42.7356 -75.1256 88° East 418 481 17,300 -1,920 Descending Boston Center
09:18PM 42.7369 -74.9758 89° East 405 466 15,300 -2,160 Descending Boston Center
09:18PM 42.7378 -74.8431 89° East 383 441 13,400 -2,160 Descending Boston Center
09:20PM 42.7408 -74.6847 88° East 369 425 11,100 -1,140 Descending Boston Center
09:21PM 42.7436 -74.5408 88° East 368 423 11,000 -300 Descending Boston Center
09:22PM 42.7397 -74.4133 92° East 340 391 10,600 -900 Descending Boston Center
09:23PM 42.7208 -74.2997 103° East 291 335 9,300 -1,320 Descending Boston Center
09:24PM 42.7036 -74.1889 102° East 288 331 8,000 -1,320 Descending Boston Center
09:25PM 42.6883 -74.0981 103° East 255 293 6,700 -1,200 Descending Boston Center
09:26PM 42.6769 -74.0217 101° East 243 280 5,700 -1,320 Descending Boston Center
09:27PM 42.6447 -73.9472 120° Southeast 184 212 4,100 -1,380 Descending Boston Center
09:28PM 42.6600 -73.8828 72° East 178 205 3,000 -840 Descending Boston Center
09:29PM 42.6714 -73.8097 78° East 166 191 2,300 -600 Descending Boston Center